sensor_id;sensor_type;location;lat;lon;timestamp;pressure;altitude;pressure_sealevel;temperature;humidity
64628;BME280;68467;50.960;0.314;2023-06-22T00:01:20;100170.71;;;17.22;100.00
64628;BME280;68467;50.960;0.314;2023-06-22T00:03:47;100162.33;;;17.16;100.00
64628;BME280;68467;50.960;0.314;2023-06-22T00:06:14;100162.61;;;16.75;100.00
64628;BME280;68467;50.960;0.314;2023-06-22T00:08:42;100160.33;;;17.57;100.00
64628;BME280;68467;50.960;0.314;2023-06-22T00:11:09;100153.65;;;16.92;100.00
64628;BME280;68467;50.960;0.314;2023-06-22T00:13:37;100147.91;;;18.31;100.00
64628;BME280;68467;50.960;0.314;2023-06-22T00:16:04;100147.80;;;17.69;100.00
64628;BME280;68467;50.960;0.314;2023-06-22T00:18:31;100150.32;;;17.75;100.00
64628;BME280;68467;50.960;0.314;2023-06-22T00:20:59;100150.20;;;17.53;100.00
64628;BME280;68467;50.960;0.314;2023-06-22T00:23:27;100150.32;;;17.08;100.00
64628;BME280;68467;50.960;0.314;2023-06-22T00:25:54;100151.57;;;17.73;100.00
64628;BME280;68467;50.960;0.314;2023-06-22T00:28:22;100151.03;;;18.01;100.00
64628;BME280;68467;50.960;0.314;2023-06-22T00:30:49;100154.96;;;17.43;100.00
64628;BME280;68467;50.960;0.314;2023-06-22T00:33:17;100151.92;;;17.61;100.00
64628;BME280;68467;50.960;0.314;2023-06-22T00:35:44;100150.44;;;17.11;100.00
64628;BME280;68467;50.960;0.314;2023-06-22T00:38:12;100148.60;;;17.30;100.00
64628;BME280;68467;50.960;0.314;2023-06-22T00:40:39;100150.26;;;17.64;100.00
64628;BME280;68467;50.960;0.314;2023-06-22T00:43:06;100149.33;;;16.96;100.00
64628;BME280;68467;50.960;0.314;2023-06-22T00:45:33;100150.05;;;17.75;100.00
64628;BME280;68467;50.960;0.314;2023-06-22T00:48:01;100149.93;;;16.94;100.00
64628;BME280;68467;50.960;0.314;2023-06-22T00:50:31;100151.09;;;17.00;100.00
64628;BME280;68467;50.960;0.314;2023-06-22T00:53:00;100154.94;;;17.16;100.00
64628;BME280;68467;50.960;0.314;2023-06-22T00:55:29;100159.32;;;17.16;100.00
64628;BME280;68467;50.960;0.314;2023-06-22T00:57:56;100164.11;;;17.51;100.00
64628;BME280;68467;50.960;0.314;2023-06-22T01:00:24;100166.53;;;17.58;100.00
64628;BME280;68467;50.960;0.314;2023-06-22T01:02:52;100160.77;;;18.02;100.00
64628;BME280;68467;50.960;0.314;2023-06-22T01:05:21;100166.78;;;16.74;100.00
64628;BME280;68467;50.960;0.314;2023-06-22T01:08:00;100167.34;;;15.97;100.00
64628;BME280;68467;50.960;0.314;2023-06-22T01:10:38;100169.22;;;17.54;100.00
64628;BME280;68467;50.960;0.314;2023-06-22T01:13:14;100157.85;;;18.01;100.00
64628;BME280;68467;50.960;0.314;2023-06-22T01:15:47;100158.31;;;17.25;100.00
64628;BME280;68467;50.960;0.314;2023-06-22T01:18:18;100153.55;;;17.13;100.00
64628;BME280;68467;50.960;0.314;2023-06-22T01:20:46;100151.33;;;16.59;100.00
64628;BME280;68467;50.960;0.314;2023-06-22T01:23:26;100152.05;;;16.22;100.00
64628;BME280;68467;50.960;0.314;2023-06-22T01:26:02;100148.61;;;17.20;100.00
64628;BME280;68467;50.960;0.314;2023-06-22T01:28:43;100151.00;;;16.64;100.00
64628;BME280;68467;50.960;0.314;2023-06-22T01:31:14;100150.20;;;16.36;100.00
64628;BME280;68467;50.960;0.314;2023-06-22T01:33:46;100150.72;;;16.79;100.00
64628;BME280;68467;50.960;0.314;2023-06-22T01:36:17;100150.98;;;17.35;100.00
64628;BME280;68467;50.960;0.314;2023-06-22T01:38:44;100154.94;;;16.71;100.00
64628;BME280;68467;50.960;0.314;2023-06-22T01:41:13;100155.72;;;16.46;100.00
64628;BME280;68467;50.960;0.314;2023-06-22T01:43:41;100157.94;;;17.28;100.00
64628;BME280;68467;50.960;0.314;2023-06-22T01:46:08;100160.53;;;16.78;100.00
64628;BME280;68467;50.960;0.314;2023-06-22T01:48:36;100159.53;;;16.60;100.00
64628;BME280;68467;50.960;0.314;2023-06-22T01:51:03;100157.30;;;16.59;100.00
64628;BME280;68467;50.960;0.314;2023-06-22T01:53:31;100157.41;;;16.66;100.00
64628;BME280;68467;50.960;0.314;2023-06-22T01:55:58;100152.73;;;16.55;100.00
64628;BME280;68467;50.960;0.314;2023-06-22T01:58:27;100154.08;;;16.01;100.00
64628;BME280;68467;50.960;0.314;2023-06-22T02:00:58;100150.22;;;15.91;100.00
64628;BME280;68467;50.960;0.314;2023-06-22T02:03:31;100148.71;;;16.30;100.00
64628;BME280;68467;50.960;0.314;2023-06-22T02:06:05;100148.52;;;16.52;100.00
64628;BME280;68467;50.960;0.314;2023-06-22T02:08:40;100146.95;;;16.47;100.00
64628;BME280;68467;50.960;0.314;2023-06-22T02:11:09;100143.86;;;17.06;100.00
64628;BME280;68467;50.960;0.314;2023-06-22T02:13:38;100139.19;;;16.76;100.00
64628;BME280;68467;50.960;0.314;2023-06-22T02:16:05;100140.87;;;17.13;100.00
64628;BME280;68467;50.960;0.314;2023-06-22T02:18:32;100140.70;;;17.20;100.00
64628;BME280;68467;50.960;0.314;2023-06-22T02:20:59;100135.17;;;17.76;100.00
64628;BME280;68467;50.960;0.314;2023-06-22T02:23:26;100134.46;;;17.94;100.00
64628;BME280;68467;50.960;0.314;2023-06-22T02:25:53;100135.64;;;17.98;100.00
64628;BME280;68467;50.960;0.314;2023-06-22T02:28:20;100138.71;;;17.73;100.00
64628;BME280;68467;50.960;0.314;2023-06-22T02:30:48;100136.73;;;18.23;100.00
64628;BME280;68467;50.960;0.314;2023-06-22T02:33:15;100136.26;;;17.91;100.00
64628;BME280;68467;50.960;0.314;2023-06-22T02:35:42;100132.58;;;18.27;100.00
64628;BME280;68467;50.960;0.314;2023-06-22T02:38:09;100132.33;;;17.12;100.00
64628;BME280;68467;50.960;0.314;2023-06-22T02:40:36;100135.95;;;17.02;100.00
64628;BME280;68467;50.960;0.314;2023-06-22T02:43:03;100140.38;;;16.40;100.00
64628;BME280;68467;50.960;0.314;2023-06-22T02:45:31;100140.58;;;17.04;100.00
64628;BME280;68467;50.960;0.314;2023-06-22T02:47:58;100138.94;;;16.76;100.00
64628;BME280;68467;50.960;0.314;2023-06-22T02:50:26;100135.60;;;17.23;100.00
64628;BME280;68467;50.960;0.314;2023-06-22T02:52:52;100132.39;;;16.79;100.00
64628;BME280;68467;50.960;0.314;2023-06-22T02:55:20;100130.12;;;16.13;100.00
64628;BME280;68467;50.960;0.314;2023-06-22T02:57:47;100124.78;;;15.97;100.00
64628;BME280;68467;50.960;0.314;2023-06-22T03:00:15;100119.17;;;15.79;100.00
64628;BME280;68467;50.960;0.314;2023-06-22T03:02:42;100119.13;;;16.45;100.00
64628;BME280;68467;50.960;0.314;2023-06-22T03:05:09;100117.88;;;15.63;100.00
64628;BME280;68467;50.960;0.314;2023-06-22T03:07:37;100115.79;;;16.28;100.00
64628;BME280;68467;50.960;0.314;2023-06-22T03:10:05;100109.73;;;15.56;100.00
64628;BME280;68467;50.960;0.314;2023-06-22T03:12:32;100113.86;;;16.33;100.00
64628;BME280;68467;50.960;0.314;2023-06-22T03:14:59;100116.80;;;17.15;100.00
64628;BME280;68467;50.960;0.314;2023-06-22T03:17:27;100120.41;;;16.78;100.00
64628;BME280;68467;50.960;0.314;2023-06-22T03:19:54;100116.63;;;17.99;100.00
64628;BME280;68467;50.960;0.314;2023-06-22T03:22:21;100118.71;;;17.49;100.00
64628;BME280;68467;50.960;0.314;2023-06-22T03:24:48;100117.09;;;16.97;100.00
64628;BME280;68467;50.960;0.314;2023-06-22T03:27:15;100110.03;;;17.28;100.00
64628;BME280;68467;50.960;0.314;2023-06-22T03:29:42;100109.27;;;17.38;100.00
64628;BME280;68467;50.960;0.314;2023-06-22T03:32:10;100110.50;;;17.26;100.00
64628;BME280;68467;50.960;0.314;2023-06-22T03:34:37;100109.93;;;17.26;100.00
64628;BME280;68467;50.960;0.314;2023-06-22T03:37:05;100111.77;;;16.95;100.00
64628;BME280;68467;50.960;0.314;2023-06-22T03:39:32;100113.38;;;16.31;100.00
64628;BME280;68467;50.960;0.314;2023-06-22T03:41:59;100110.96;;;16.68;100.00
64628;BME280;68467;50.960;0.314;2023-06-22T03:44:26;100115.25;;;16.17;100.00
64628;BME280;68467;50.960;0.314;2023-06-22T03:46:53;100115.45;;;16.50;100.00
64628;BME280;68467;50.960;0.314;2023-06-22T03:49:20;100114.36;;;16.21;100.00
64628;BME280;68467;50.960;0.314;2023-06-22T03:51:47;100114.70;;;15.81;100.00
64628;BME280;68467;50.960;0.314;2023-06-22T03:54:14;100117.04;;;16.17;100.00
64628;BME280;68467;50.960;0.314;2023-06-22T03:56:41;100110.15;;;15.39;100.00
64628;BME280;68467;50.960;0.314;2023-06-22T03:59:08;100106.84;;;14.99;100.00
64628;BME280;68467;50.960;0.314;2023-06-22T04:01:36;100105.20;;;14.90;100.00
64628;BME280;68467;50.960;0.314;2023-06-22T04:04:05;100113.80;;;15.80;100.00
64628;BME280;68467;50.960;0.314;2023-06-22T04:06:33;100115.45;;;15.66;100.00
64628;BME280;68467;50.960;0.314;2023-06-22T04:09:00;100118.69;;;15.32;100.00
64628;BME280;68467;50.960;0.314;2023-06-22T04:11:27;100116.66;;;15.56;100.00
64628;BME280;68467;50.960;0.314;2023-06-22T04:13:54;100107.66;;;15.96;100.00
64628;BME280;68467;50.960;0.314;2023-06-22T04:16:21;100109.37;;;15.92;100.00
64628;BME280;68467;50.960;0.314;2023-06-22T04:18:48;100118.20;;;16.09;100.00
64628;BME280;68467;50.960;0.314;2023-06-22T04:21:15;100122.34;;;15.66;100.00
64628;BME280;68467;50.960;0.314;2023-06-22T04:23:42;100119.10;;;15.36;100.00
64628;BME280;68467;50.960;0.314;2023-06-22T04:26:09;100121.69;;;15.67;100.00
64628;BME280;68467;50.960;0.314;2023-06-22T04:28:36;100123.37;;;15.76;100.00
64628;BME280;68467;50.960;0.314;2023-06-22T04:31:04;100130.96;;;15.16;100.00
64628;BME280;68467;50.960;0.314;2023-06-22T04:33:31;100135.80;;;15.92;100.00
64628;BME280;68467;50.960;0.314;2023-06-22T04:36:04;100138.75;;;16.66;100.00
64628;BME280;68467;50.960;0.314;2023-06-22T04:38:31;100136.00;;;17.42;100.00
64628;BME280;68467;50.960;0.314;2023-06-22T04:40:58;100130.36;;;17.68;100.00
64628;BME280;68467;50.960;0.314;2023-06-22T04:43:25;100131.65;;;17.47;100.00
64628;BME280;68467;50.960;0.314;2023-06-22T04:45:52;100135.96;;;17.38;100.00
64628;BME280;68467;50.960;0.314;2023-06-22T04:48:19;100131.63;;;17.09;100.00
64628;BME280;68467;50.960;0.314;2023-06-22T04:50:46;100133.27;;;16.29;100.00
64628;BME280;68467;50.960;0.314;2023-06-22T04:53:13;100134.92;;;15.95;100.00
64628;BME280;68467;50.960;0.314;2023-06-22T04:55:40;100128.61;;;16.59;100.00
64628;BME280;68467;50.960;0.314;2023-06-22T04:58:08;100127.46;;;17.06;100.00
64628;BME280;68467;50.960;0.314;2023-06-22T05:00:35;100125.16;;;17.60;100.00
64628;BME280;68467;50.960;0.314;2023-06-22T05:03:03;100121.28;;;17.89;100.00
64628;BME280;68467;50.960;0.314;2023-06-22T05:05:30;100123.65;;;18.16;100.00
64628;BME280;68467;50.960;0.314;2023-06-22T05:07:57;100124.27;;;18.05;100.00
64628;BME280;68467;50.960;0.314;2023-06-22T05:10:25;100125.40;;;18.00;100.00
64628;BME280;68467;50.960;0.314;2023-06-22T05:12:52;100123.55;;;17.65;100.00
64628;BME280;68467;50.960;0.314;2023-06-22T05:15:19;100120.53;;;17.79;100.00
64628;BME280;68467;50.960;0.314;2023-06-22T05:17:47;100117.12;;;17.79;100.00
64628;BME280;68467;50.960;0.314;2023-06-22T05:20:14;100113.73;;;17.67;100.00
64628;BME280;68467;50.960;0.314;2023-06-22T05:22:41;100114.09;;;17.88;100.00
64628;BME280;68467;50.960;0.314;2023-06-22T05:25:10;100120.95;;;18.08;100.00
64628;BME280;68467;50.960;0.314;2023-06-22T05:27:38;100127.92;;;17.46;100.00
64628;BME280;68467;50.960;0.314;2023-06-22T05:30:07;100125.90;;;17.85;100.00
64628;BME280;68467;50.960;0.314;2023-06-22T05:32:35;100132.59;;;18.15;100.00
64628;BME280;68467;50.960;0.314;2023-06-22T05:35:03;100134.84;;;18.76;100.00
64628;BME280;68467;50.960;0.314;2023-06-22T05:37:31;100138.99;;;18.80;100.00
64628;BME280;68467;50.960;0.314;2023-06-22T05:39:58;100142.13;;;18.25;100.00
64628;BME280;68467;50.960;0.314;2023-06-22T05:42:25;100144.83;;;17.91;100.00
64628;BME280;68467;50.960;0.314;2023-06-22T05:44:53;100141.85;;;18.52;100.00
64628;BME280;68467;50.960;0.314;2023-06-22T05:47:20;100149.95;;;17.41;100.00
64628;BME280;68467;50.960;0.314;2023-06-22T05:49:47;100144.34;;;17.57;100.00
64628;BME280;68467;50.960;0.314;2023-06-22T05:52:14;100140.68;;;18.51;100.00
64628;BME280;68467;50.960;0.314;2023-06-22T05:54:42;100137.99;;;18.68;100.00
64628;BME280;68467;50.960;0.314;2023-06-22T05:57:09;100135.32;;;18.41;100.00
64628;BME280;68467;50.960;0.314;2023-06-22T05:59:36;100130.04;;;18.64;100.00
64628;BME280;68467;50.960;0.314;2023-06-22T06:02:03;100128.57;;;19.14;100.00
64628;BME280;68467;50.960;0.314;2023-06-22T06:04:31;100124.59;;;19.40;100.00
64628;BME280;68467;50.960;0.314;2023-06-22T06:06:58;100121.77;;;19.36;100.00
64628;BME280;68467;50.960;0.314;2023-06-22T06:09:25;100117.05;;;19.81;100.00
64628;BME280;68467;50.960;0.314;2023-06-22T06:11:52;100113.82;;;19.04;100.00
64628;BME280;68467;50.960;0.314;2023-06-22T06:14:19;100114.12;;;18.94;100.00
64628;BME280;68467;50.960;0.314;2023-06-22T06:16:46;100117.57;;;19.26;100.00
64628;BME280;68467;50.960;0.314;2023-06-22T06:19:13;100115.09;;;19.02;100.00
64628;BME280;68467;50.960;0.314;2023-06-22T06:21:41;100113.80;;;20.02;100.00
64628;BME280;68467;50.960;0.314;2023-06-22T06:24:08;100114.17;;;19.55;100.00
64628;BME280;68467;50.960;0.314;2023-06-22T06:26:35;100114.37;;;19.84;100.00
64628;BME280;68467;50.960;0.314;2023-06-22T06:29:02;100112.83;;;19.86;100.00
64628;BME280;68467;50.960;0.314;2023-06-22T06:31:29;100108.53;;;19.67;100.00
64628;BME280;68467;50.960;0.314;2023-06-22T06:33:56;100105.68;;;20.03;100.00
64628;BME280;68467;50.960;0.314;2023-06-22T06:36:23;100104.67;;;20.33;100.00
64628;BME280;68467;50.960;0.314;2023-06-22T06:38:51;100106.67;;;20.67;100.00
64628;BME280;68467;50.960;0.314;2023-06-22T06:41:25;100106.16;;;19.89;100.00
64628;BME280;68467;50.960;0.314;2023-06-22T06:43:52;100105.02;;;19.08;100.00
64628;BME280;68467;50.960;0.314;2023-06-22T06:46:19;100105.12;;;19.71;100.00
64628;BME280;68467;50.960;0.314;2023-06-22T06:48:47;100102.29;;;19.47;100.00
64628;BME280;68467;50.960;0.314;2023-06-22T06:51:14;100106.15;;;20.36;100.00
64628;BME280;68467;50.960;0.314;2023-06-22T06:53:41;100104.94;;;20.46;100.00
64628;BME280;68467;50.960;0.314;2023-06-22T06:56:08;100103.90;;;20.70;100.00
64628;BME280;68467;50.960;0.314;2023-06-22T06:58:36;100102.00;;;21.06;100.00
64628;BME280;68467;50.960;0.314;2023-06-22T07:01:03;100101.44;;;20.22;100.00
64628;BME280;68467;50.960;0.314;2023-06-22T07:03:29;100101.83;;;21.01;100.00
64628;BME280;68467;50.960;0.314;2023-06-22T07:05:56;100101.01;;;20.42;100.00
64628;BME280;68467;50.960;0.314;2023-06-22T07:08:23;100101.61;;;21.13;100.00
64628;BME280;68467;50.960;0.314;2023-06-22T07:10:52;100103.98;;;20.39;100.00
64628;BME280;68467;50.960;0.314;2023-06-22T07:13:24;100103.73;;;20.75;100.00
64628;BME280;68467;50.960;0.314;2023-06-22T07:15:52;100103.73;;;21.43;100.00
64628;BME280;68467;50.960;0.314;2023-06-22T07:18:19;100105.02;;;21.84;100.00
64628;BME280;68467;50.960;0.314;2023-06-22T07:20:47;100108.09;;;21.38;100.00
64628;BME280;68467;50.960;0.314;2023-06-22T07:23:14;100106.22;;;21.77;100.00
64628;BME280;68467;50.960;0.314;2023-06-22T07:25:41;100103.32;;;22.53;100.00
64628;BME280;68467;50.960;0.314;2023-06-22T07:28:09;100110.56;;;20.98;100.00
64628;BME280;68467;50.960;0.314;2023-06-22T07:30:37;100108.41;;;21.52;100.00
64628;BME280;68467;50.960;0.314;2023-06-22T07:33:04;100108.07;;;21.37;100.00
64628;BME280;68467;50.960;0.314;2023-06-22T07:35:31;100104.71;;;22.01;100.00
64628;BME280;68467;50.960;0.314;2023-06-22T07:37:58;100101.15;;;21.50;100.00
64628;BME280;68467;50.960;0.314;2023-06-22T07:40:26;100106.16;;;20.92;100.00
64628;BME280;68467;50.960;0.314;2023-06-22T07:42:54;100104.79;;;21.30;100.00
64628;BME280;68467;50.960;0.314;2023-06-22T07:45:21;100106.47;;;21.58;100.00
64628;BME280;68467;50.960;0.314;2023-06-22T07:47:50;100107.51;;;22.32;100.00
64628;BME280;68467;50.960;0.314;2023-06-22T07:50:17;100115.20;;;20.22;100.00
64628;BME280;68467;50.960;0.314;2023-06-22T07:52:45;100112.42;;;21.91;100.00
64628;BME280;68467;50.960;0.314;2023-06-22T07:55:12;100109.57;;;22.25;100.00
64628;BME280;68467;50.960;0.314;2023-06-22T07:57:39;100110.59;;;21.72;100.00
64628;BME280;68467;50.960;0.314;2023-06-22T08:00:06;100108.82;;;21.75;100.00
64628;BME280;68467;50.960;0.314;2023-06-22T08:02:34;100107.11;;;20.82;100.00
64628;BME280;68467;50.960;0.314;2023-06-22T08:05:01;100107.01;;;21.03;100.00
64628;BME280;68467;50.960;0.314;2023-06-22T08:07:27;100104.49;;;21.12;100.00
64628;BME280;68467;50.960;0.314;2023-06-22T08:09:55;100100.75;;;21.46;100.00
64628;BME280;68467;50.960;0.314;2023-06-22T08:12:22;100099.07;;;21.04;100.00
64628;BME280;68467;50.960;0.314;2023-06-22T08:14:49;100096.35;;;21.79;100.00
64628;BME280;68467;50.960;0.314;2023-06-22T08:17:17;100097.23;;;21.76;100.00
64628;BME280;68467;50.960;0.314;2023-06-22T08:19:44;100101.32;;;21.35;100.00
64628;BME280;68467;50.960;0.314;2023-06-22T08:22:11;100098.91;;;21.70;100.00
64628;BME280;68467;50.960;0.314;2023-06-22T08:24:38;100094.76;;;22.37;100.00
64628;BME280;68467;50.960;0.314;2023-06-22T08:27:07;100104.99;;;20.35;100.00
64628;BME280;68467;50.960;0.314;2023-06-22T08:29:34;100106.18;;;20.74;100.00
64628;BME280;68467;50.960;0.314;2023-06-22T08:32:02;100100.47;;;21.65;100.00
64628;BME280;68467;50.960;0.314;2023-06-22T08:34:29;100099.54;;;22.17;100.00
64628;BME280;68467;50.960;0.314;2023-06-22T08:36:55;100104.82;;;21.52;100.00
64628;BME280;68467;50.960;0.314;2023-06-22T08:39:22;100101.48;;;21.72;100.00
64628;BME280;68467;50.960;0.314;2023-06-22T08:41:49;100098.23;;;22.67;100.00
64628;BME280;68467;50.960;0.314;2023-06-22T08:44:19;100095.69;;;22.62;100.00
64628;BME280;68467;50.960;0.314;2023-06-22T08:46:46;100093.40;;;23.02;100.00
64628;BME280;68467;50.960;0.314;2023-06-22T08:49:13;100093.65;;;22.54;100.00
64628;BME280;68467;50.960;0.314;2023-06-22T08:51:41;100087.73;;;23.15;100.00
64628;BME280;68467;50.960;0.314;2023-06-22T08:54:08;100088.20;;;22.67;100.00
64628;BME280;68467;50.960;0.314;2023-06-22T08:56:35;100086.32;;;22.60;100.00
64628;BME280;68467;50.960;0.314;2023-06-22T08:59:03;100093.82;;;22.30;100.00
64628;BME280;68467;50.960;0.314;2023-06-22T09:01:30;100099.40;;;21.93;100.00
64628;BME280;68467;50.960;0.314;2023-06-22T09:03:57;100103.00;;;21.27;100.00
64628;BME280;68467;50.960;0.314;2023-06-22T09:06:24;100103.25;;;20.99;100.00
64628;BME280;68467;50.960;0.314;2023-06-22T09:08:51;100105.81;;;21.50;100.00
64628;BME280;68467;50.960;0.314;2023-06-22T09:11:19;100099.33;;;22.92;100.00
64628;BME280;68467;50.960;0.314;2023-06-22T09:13:45;100103.40;;;22.97;100.00
64628;BME280;68467;50.960;0.314;2023-06-22T09:16:13;100104.70;;;21.91;100.00
64628;BME280;68467;50.960;0.314;2023-06-22T09:18:41;100103.91;;;22.40;100.00
64628;BME280;68467;50.960;0.314;2023-06-22T09:21:07;100105.96;;;22.49;100.00
64628;BME280;68467;50.960;0.314;2023-06-22T09:23:34;100102.39;;;21.92;100.00
64628;BME280;68467;50.960;0.314;2023-06-22T09:26:01;100101.65;;;23.02;100.00
64628;BME280;68467;50.960;0.314;2023-06-22T09:28:28;100099.80;;;24.00;100.00
64628;BME280;68467;50.960;0.314;2023-06-22T09:30:56;100104.35;;;23.77;100.00
64628;BME280;68467;50.960;0.314;2023-06-22T09:33:24;100105.19;;;24.55;100.00
64628;BME280;68467;50.960;0.314;2023-06-22T09:35:51;100102.96;;;24.76;100.00
64628;BME280;68467;50.960;0.314;2023-06-22T09:38:18;100102.45;;;23.65;100.00
64628;BME280;68467;50.960;0.314;2023-06-22T09:40:46;100100.63;;;24.23;100.00
64628;BME280;68467;50.960;0.314;2023-06-22T09:43:14;100106.47;;;24.74;100.00
64628;BME280;68467;50.960;0.314;2023-06-22T09:45:41;100107.58;;;23.97;100.00
64628;BME280;68467;50.960;0.314;2023-06-22T09:48:08;100107.28;;;24.03;100.00
64628;BME280;68467;50.960;0.314;2023-06-22T09:50:36;100109.10;;;24.68;100.00
64628;BME280;68467;50.960;0.314;2023-06-22T09:53:03;100103.87;;;24.70;99.20
64628;BME280;68467;50.960;0.314;2023-06-22T09:55:29;100107.35;;;25.50;97.39
64628;BME280;68467;50.960;0.314;2023-06-22T09:57:56;100106.78;;;25.10;96.86
64628;BME280;68467;50.960;0.314;2023-06-22T10:00:23;100105.12;;;25.49;94.33
64628;BME280;68467;50.960;0.314;2023-06-22T10:02:51;100107.46;;;24.76;94.40
64628;BME280;68467;50.960;0.314;2023-06-22T10:05:19;100107.04;;;25.60;95.71
64628;BME280;68467;50.960;0.314;2023-06-22T10:07:46;100106.16;;;24.27;96.41
64628;BME280;68467;50.960;0.314;2023-06-22T10:10:14;100105.42;;;24.94;97.45
64628;BME280;68467;50.960;0.314;2023-06-22T10:12:42;100104.00;;;24.61;96.46
64628;BME280;68467;50.960;0.314;2023-06-22T10:15:10;100102.41;;;25.09;89.95
64628;BME280;68467;50.960;0.314;2023-06-22T10:17:37;100101.05;;;25.54;97.90
64628;BME280;68467;50.960;0.314;2023-06-22T10:20:07;100100.06;;;26.23;91.67
64628;BME280;68467;50.960;0.314;2023-06-22T10:22:34;100101.38;;;24.33;92.33
64628;BME280;68467;50.960;0.314;2023-06-22T10:25:00;100100.12;;;25.06;91.05
64628;BME280;68467;50.960;0.314;2023-06-22T10:27:27;100100.62;;;25.17;92.60
64628;BME280;68467;50.960;0.314;2023-06-22T10:29:54;100099.40;;;24.60;92.80
64628;BME280;68467;50.960;0.314;2023-06-22T10:32:21;100106.30;;;24.73;91.88
64628;BME280;68467;50.960;0.314;2023-06-22T10:34:49;100104.73;;;24.30;89.82
64628;BME280;68467;50.960;0.314;2023-06-22T10:37:16;100101.83;;;24.87;89.54
64628;BME280;68467;50.960;0.314;2023-06-22T10:39:42;100103.17;;;24.92;91.87
64628;BME280;68467;50.960;0.314;2023-06-22T10:42:09;100097.25;;;24.74;87.83
64628;BME280;68467;50.960;0.314;2023-06-22T10:44:36;100095.98;;;25.75;88.41
64628;BME280;68467;50.960;0.314;2023-06-22T10:47:04;100096.56;;;25.46;83.31
64628;BME280;68467;50.960;0.314;2023-06-22T10:49:31;100095.77;;;25.85;83.43
64628;BME280;68467;50.960;0.314;2023-06-22T10:51:58;100092.27;;;26.18;82.39
64628;BME280;68467;50.960;0.314;2023-06-22T10:54:25;100093.43;;;25.68;85.60
64628;BME280;68467;50.960;0.314;2023-06-22T10:56:52;100094.83;;;25.31;89.02
64628;BME280;68467;50.960;0.314;2023-06-22T10:59:20;100090.60;;;25.41;88.97
64628;BME280;68467;50.960;0.314;2023-06-22T11:01:47;100091.69;;;26.53;88.25
64628;BME280;68467;50.960;0.314;2023-06-22T11:04:15;100095.99;;;25.11;89.12
64628;BME280;68467;50.960;0.314;2023-06-22T11:06:42;100096.79;;;25.88;87.56
64628;BME280;68467;50.960;0.314;2023-06-22T11:09:10;100096.37;;;26.16;86.07
64628;BME280;68467;50.960;0.314;2023-06-22T11:11:38;100094.94;;;25.29;85.71
64628;BME280;68467;50.960;0.314;2023-06-22T11:14:04;100094.01;;;24.76;87.17
64628;BME280;68467;50.960;0.314;2023-06-22T11:16:31;100090.99;;;25.93;87.16
64628;BME280;68467;50.960;0.314;2023-06-22T11:18:58;100088.58;;;26.12;88.45
64628;BME280;68467;50.960;0.314;2023-06-22T11:21:25;100089.65;;;25.96;88.43
64628;BME280;68467;50.960;0.314;2023-06-22T11:23:52;100083.69;;;25.60;87.02
64628;BME280;68467;50.960;0.314;2023-06-22T11:26:20;100082.09;;;25.77;88.44
64628;BME280;68467;50.960;0.314;2023-06-22T11:28:46;100085.78;;;25.83;89.50
64628;BME280;68467;50.960;0.314;2023-06-22T11:31:13;100088.74;;;25.61;84.91
64628;BME280;68467;50.960;0.314;2023-06-22T11:33:41;100090.32;;;25.85;82.45
64628;BME280;68467;50.960;0.314;2023-06-22T11:36:08;100086.87;;;26.13;85.40
64628;BME280;68467;50.960;0.314;2023-06-22T11:38:35;100083.94;;;27.00;83.50
64628;BME280;68467;50.960;0.314;2023-06-22T11:41:02;100082.16;;;26.84;89.20
64628;BME280;68467;50.960;0.314;2023-06-22T11:43:29;100084.59;;;25.19;89.23
64628;BME280;68467;50.960;0.314;2023-06-22T11:45:56;100079.14;;;26.78;85.97
64628;BME280;68467;50.960;0.314;2023-06-22T11:48:24;100075.97;;;27.19;81.69
64628;BME280;68467;50.960;0.314;2023-06-22T11:50:51;100071.56;;;27.60;82.46
64628;BME280;68467;50.960;0.314;2023-06-22T11:53:20;100071.80;;;27.30;81.73
64628;BME280;68467;50.960;0.314;2023-06-22T11:55:47;100068.14;;;27.58;82.19
64628;BME280;68467;50.960;0.314;2023-06-22T11:58:14;100061.02;;;28.59;77.59
64628;BME280;68467;50.960;0.314;2023-06-22T12:00:42;100056.31;;;28.52;82.67
64628;BME280;68467;50.960;0.314;2023-06-22T12:03:09;100054.74;;;27.98;84.47
64628;BME280;68467;50.960;0.314;2023-06-22T12:05:36;100060.32;;;26.36;83.51
64628;BME280;68467;50.960;0.314;2023-06-22T12:08:04;100052.37;;;27.43;78.73
64628;BME280;68467;50.960;0.314;2023-06-22T12:10:31;100052.66;;;28.18;78.75
64628;BME280;68467;50.960;0.314;2023-06-22T12:12:59;100050.14;;;28.57;74.72
64628;BME280;68467;50.960;0.314;2023-06-22T12:15:26;100051.10;;;28.75;76.02
64628;BME280;68467;50.960;0.314;2023-06-22T12:17:53;100052.87;;;28.45;76.30
64628;BME280;68467;50.960;0.314;2023-06-22T12:20:20;100059.07;;;28.29;77.82
64628;BME280;68467;50.960;0.314;2023-06-22T12:22:47;100057.46;;;27.91;76.88
64628;BME280;68467;50.960;0.314;2023-06-22T12:25:14;100062.72;;;26.43;79.15
64628;BME280;68467;50.960;0.314;2023-06-22T12:27:41;100060.00;;;27.74;79.30
64628;BME280;68467;50.960;0.314;2023-06-22T12:30:09;100062.05;;;28.45;75.63
64628;BME280;68467;50.960;0.314;2023-06-22T12:32:36;100063.22;;;28.73;77.71
64628;BME280;68467;50.960;0.314;2023-06-22T12:35:04;100063.10;;;28.88;73.66
64628;BME280;68467;50.960;0.314;2023-06-22T12:37:31;100064.31;;;29.06;70.72
64628;BME280;68467;50.960;0.314;2023-06-22T12:39:58;100067.37;;;29.13;72.72
64628;BME280;68467;50.960;0.314;2023-06-22T12:42:26;100066.41;;;28.56;75.17
64628;BME280;68467;50.960;0.314;2023-06-22T12:44:53;100066.58;;;28.68;74.84